sensor_id;sensor_type;location;lat;lon;timestamp;pressure;altitude;pressure_sealevel;temperature;humidity
7376;BME280;3728;42.266;24.944;2024-03-29T00:02:12;99210.97;;;13.46;66.65
7376;BME280;3728;42.266;24.944;2024-03-29T00:04:38;99218.53;;;13.35;66.59
7376;BME280;3728;42.266;24.944;2024-03-29T00:07:04;99219.47;;;13.31;66.75
7376;BME280;3728;42.266;24.944;2024-03-29T00:09:30;99223.16;;;12.97;66.83
7376;BME280;3728;42.266;24.944;2024-03-29T00:11:57;99231.97;;;12.80;69.28
7376;BME280;3728;42.266;24.944;2024-03-29T00:14:22;99228.75;;;12.54;71.18
7376;BME280;3728;42.266;24.944;2024-03-29T00:16:48;99227.84;;;12.50;72.71
7376;BME280;3728;42.266;24.944;2024-03-29T00:19:14;99227.97;;;12.74;72.03
7376;BME280;3728;42.266;24.944;2024-03-29T00:21:40;99221.94;;;12.53;71.42
7376;BME280;3728;42.266;24.944;2024-03-29T00:24:06;99229.13;;;12.65;71.64
7376;BME280;3728;42.266;24.944;2024-03-29T00:26:32;99232.06;;;12.43;72.02
7376;BME280;3728;42.266;24.944;2024-03-29T00:28:58;99234.25;;;12.32;73.01
7376;BME280;3728;42.266;24.944;2024-03-29T00:31:24;99233.44;;;12.11;74.01
7376;BME280;3728;42.266;24.944;2024-03-29T00:33:50;99236.72;;;12.08;74.34
7376;BME280;3728;42.266;24.944;2024-03-29T00:36:16;99229.53;;;11.88;74.71
7376;BME280;3728;42.266;24.944;2024-03-29T00:38:43;99228.28;;;11.94;75.11
7376;BME280;3728;42.266;24.944;2024-03-29T00:41:08;99228.59;;;11.92;75.50
7376;BME280;3728;42.266;24.944;2024-03-29T00:43:35;99227.38;;;11.90;76.10
7376;BME280;3728;42.266;24.944;2024-03-29T00:46:01;99232.31;;;11.83;76.33
7376;BME280;3728;42.266;24.944;2024-03-29T00:48:27;99236.34;;;11.89;76.33
7376;BME280;3728;42.266;24.944;2024-03-29T00:50:53;99233.84;;;11.92;76.59
7376;BME280;3728;42.266;24.944;2024-03-29T00:53:20;99236.63;;;11.96;76.94
7376;BME280;3728;42.266;24.944;2024-03-29T00:55:46;99243.09;;;11.90;77.32
7376;BME280;3728;42.266;24.944;2024-03-29T00:58:12;99241.97;;;12.08;76.77
7376;BME280;3728;42.266;24.944;2024-03-29T01:00:38;99240.38;;;12.15;75.57
7376;BME280;3728;42.266;24.944;2024-03-29T01:03:04;99243.59;;;12.21;75.78
7376;BME280;3728;42.266;24.944;2024-03-29T01:05:30;99242.59;;;12.05;75.89
7376;BME280;3728;42.266;24.944;2024-03-29T01:07:55;99245.00;;;11.89;76.73
7376;BME280;3728;42.266;24.944;2024-03-29T01:10:21;99257.22;;;11.77;78.42
7376;BME280;3728;42.266;24.944;2024-03-29T01:12:48;99252.53;;;11.91;77.38
7376;BME280;3728;42.266;24.944;2024-03-29T01:15:14;99253.50;;;11.78;77.01
7376;BME280;3728;42.266;24.944;2024-03-29T01:17:40;99251.97;;;11.77;78.40
7376;BME280;3728;42.266;24.944;2024-03-29T01:20:06;99265.13;;;11.68;78.90
7376;BME280;3728;42.266;24.944;2024-03-29T01:22:34;99257.06;;;11.73;78.71
7376;BME280;3728;42.266;24.944;2024-03-29T01:25:00;99256.16;;;11.69;78.74
7376;BME280;3728;42.266;24.944;2024-03-29T01:27:27;99250.91;;;11.69;79.07
7376;BME280;3728;42.266;24.944;2024-03-29T01:29:53;99249.81;;;11.61;79.36
7376;BME280;3728;42.266;24.944;2024-03-29T01:32:19;99255.22;;;11.56;79.66
7376;BME280;3728;42.266;24.944;2024-03-29T01:34:45;99256.00;;;11.57;78.93
7376;BME280;3728;42.266;24.944;2024-03-29T01:37:10;99266.16;;;11.76;77.94
7376;BME280;3728;42.266;24.944;2024-03-29T01:39:37;99265.78;;;12.03;74.31
7376;BME280;3728;42.266;24.944;2024-03-29T01:42:03;99255.09;;;12.08;73.62
7376;BME280;3728;42.266;24.944;2024-03-29T01:44:30;99256.44;;;12.14;73.35
7376;BME280;3728;42.266;24.944;2024-03-29T01:46:56;99256.44;;;12.14;72.33
7376;BME280;3728;42.266;24.944;2024-03-29T01:49:22;99253.50;;;12.15;70.11
7376;BME280;3728;42.266;24.944;2024-03-29T01:51:48;99258.91;;;12.19;69.12
7376;BME280;3728;42.266;24.944;2024-03-29T01:54:15;99264.88;;;12.28;67.60
7376;BME280;3728;42.266;24.944;2024-03-29T01:56:41;99270.84;;;12.37;66.39
7376;BME280;3728;42.266;24.944;2024-03-29T01:59:13;99273.31;;;12.63;64.94
7376;BME280;3728;42.266;24.944;2024-03-29T02:01:41;99288.38;;;12.54;64.48
7376;BME280;3728;42.266;24.944;2024-03-29T02:04:08;99290.38;;;12.57;64.86
7376;BME280;3728;42.266;24.944;2024-03-29T02:06:36;99290.44;;;12.48;64.62
7376;BME280;3728;42.266;24.944;2024-03-29T02:09:03;99297.84;;;12.46;66.90
7376;BME280;3728;42.266;24.944;2024-03-29T02:11:29;99298.50;;;12.43;66.30
7376;BME280;3728;42.266;24.944;2024-03-29T02:13:55;99300.50;;;12.38;67.38
7376;BME280;3728;42.266;24.944;2024-03-29T02:16:21;99312.19;;;12.49;65.96
7376;BME280;3728;42.266;24.944;2024-03-29T02:18:47;99313.88;;;12.53;64.96
7376;BME280;3728;42.266;24.944;2024-03-29T02:21:13;99311.69;;;12.26;66.84
7376;BME280;3728;42.266;24.944;2024-03-29T02:23:44;99313.59;;;12.17;67.51
7376;BME280;3728;42.266;24.944;2024-03-29T02:26:13;99318.06;;;12.16;67.09
7376;BME280;3728;42.266;24.944;2024-03-29T02:28:39;99314.00;;;12.27;67.15
7376;BME280;3728;42.266;24.944;2024-03-29T02:31:05;99317.66;;;12.35;66.66
7376;BME280;3728;42.266;24.944;2024-03-29T02:33:31;99313.16;;;12.44;65.24
7376;BME280;3728;42.266;24.944;2024-03-29T02:35:57;99312.16;;;12.57;64.49
7376;BME280;3728;42.266;24.944;2024-03-29T02:38:24;99318.03;;;12.54;64.13
7376;BME280;3728;42.266;24.944;2024-03-29T02:40:50;99326.66;;;12.34;64.76
7376;BME280;3728;42.266;24.944;2024-03-29T02:43:16;99332.41;;;12.57;64.08
7376;BME280;3728;42.266;24.944;2024-03-29T02:45:43;99335.97;;;12.52;63.69
7376;BME280;3728;42.266;24.944;2024-03-29T02:48:09;99348.22;;;12.40;64.37
7376;BME280;3728;42.266;24.944;2024-03-29T02:50:35;99348.56;;;12.29;66.42
7376;BME280;3728;42.266;24.944;2024-03-29T02:53:01;99353.81;;;12.38;66.61
7376;BME280;3728;42.266;24.944;2024-03-29T02:55:27;99343.31;;;12.29;64.66
7376;BME280;3728;42.266;24.944;2024-03-29T02:57:53;99354.47;;;12.18;65.41
7376;BME280;3728;42.266;24.944;2024-03-29T03:00:19;99364.06;;;12.14;67.26
7376;BME280;3728;42.266;24.944;2024-03-29T03:02:46;99382.16;;;12.07;67.24
7376;BME280;3728;42.266;24.944;2024-03-29T03:05:12;99391.75;;;12.03;67.78
7376;BME280;3728;42.266;24.944;2024-03-29T03:07:39;99393.31;;;11.78;69.11
7376;BME280;3728;42.266;24.944;2024-03-29T03:10:24;99389.00;;;11.74;69.30
7376;BME280;3728;42.266;24.944;2024-03-29T03:13:08;99386.69;;;11.72;68.27
7376;BME280;3728;42.266;24.944;2024-03-29T03:15:34;99390.69;;;11.87;67.44
7376;BME280;3728;42.266;24.944;2024-03-29T03:18:00;99393.63;;;11.77;67.58
7376;BME280;3728;42.266;24.944;2024-03-29T03:20:27;99399.94;;;11.76;67.96
7376;BME280;3728;42.266;24.944;2024-03-29T03:22:56;99406.41;;;11.52;69.63
7376;BME280;3728;42.266;24.944;2024-03-29T03:25:24;99402.41;;;11.55;68.72
7376;BME280;3728;42.266;24.944;2024-03-29T03:27:52;99415.09;;;11.70;67.88
7376;BME280;3728;42.266;24.944;2024-03-29T03:30:18;99410.25;;;11.63;67.96
7376;BME280;3728;42.266;24.944;2024-03-29T03:32:44;99410.75;;;11.74;67.39
7376;BME280;3728;42.266;24.944;2024-03-29T03:35:10;99412.28;;;12.56;62.62
7376;BME280;3728;42.266;24.944;2024-03-29T03:37:36;99418.50;;;12.51;61.40
7376;BME280;3728;42.266;24.944;2024-03-29T03:40:03;99430.28;;;12.83;60.43
7376;BME280;3728;42.266;24.944;2024-03-29T03:42:30;99432.88;;;12.45;61.42
7376;BME280;3728;42.266;24.944;2024-03-29T03:44:56;99433.25;;;12.18;62.97
7376;BME280;3728;42.266;24.944;2024-03-29T03:47:22;99434.66;;;12.07;63.69
7376;BME280;3728;42.266;24.944;2024-03-29T03:49:48;99454.13;;;11.72;66.19
7376;BME280;3728;42.266;24.944;2024-03-29T03:52:14;99456.84;;;11.32;69.36
7376;BME280;3728;42.266;24.944;2024-03-29T03:54:40;99458.16;;;11.21;71.11
7376;BME280;3728;42.266;24.944;2024-03-29T03:57:07;99460.63;;;11.09;71.31
7376;BME280;3728;42.266;24.944;2024-03-29T03:59:33;99462.28;;;11.05;71.49
7376;BME280;3728;42.266;24.944;2024-03-29T04:01:59;99465.63;;;11.45;69.31
7376;BME280;3728;42.266;24.944;2024-03-29T04:04:25;99467.19;;;11.54;69.17
7376;BME280;3728;42.266;24.944;2024-03-29T04:06:52;99463.69;;;11.85;66.18
7376;BME280;3728;42.266;24.944;2024-03-29T04:09:18;99467.09;;;11.77;67.12
7376;BME280;3728;42.266;24.944;2024-03-29T04:11:44;99467.53;;;11.87;65.99
7376;BME280;3728;42.266;24.944;2024-03-29T04:14:10;99466.31;;;12.19;64.63
7376;BME280;3728;42.266;24.944;2024-03-29T04:16:36;99468.31;;;12.13;63.96
7376;BME280;3728;42.266;24.944;2024-03-29T04:19:02;99474.16;;;12.36;62.63
7376;BME280;3728;42.266;24.944;2024-03-29T04:21:28;99472.16;;;12.16;64.47
7376;BME280;3728;42.266;24.944;2024-03-29T04:23:54;99482.22;;;11.97;65.19
7376;BME280;3728;42.266;24.944;2024-03-29T04:26:22;99490.88;;;12.06;66.78
7376;BME280;3728;42.266;24.944;2024-03-29T04:28:48;99490.38;;;12.04;67.44
7376;BME280;3728;42.266;24.944;2024-03-29T04:31:14;99493.03;;;12.12;66.63
7376;BME280;3728;42.266;24.944;2024-03-29T04:33:40;99501.69;;;12.13;65.79
7376;BME280;3728;42.266;24.944;2024-03-29T04:36:06;99505.06;;;12.22;65.88
7376;BME280;3728;42.266;24.944;2024-03-29T04:38:32;99502.00;;;12.20;65.53
7376;BME280;3728;42.266;24.944;2024-03-29T04:40:59;99506.75;;;11.84;67.48
7376;BME280;3728;42.266;24.944;2024-03-29T04:43:26;99510.91;;;11.85;66.52
7376;BME280;3728;42.266;24.944;2024-03-29T04:46:13;99505.53;;;11.73;67.65
7376;BME280;3728;42.266;24.944;2024-03-29T04:48:40;99506.75;;;11.84;67.04
7376;BME280;3728;42.266;24.944;2024-03-29T04:51:11;99513.72;;;11.88;66.34
7376;BME280;3728;42.266;24.944;2024-03-29T04:53:38;99514.34;;;11.94;66.97
7376;BME280;3728;42.266;24.944;2024-03-29T04:56:05;99518.63;;;11.81;67.05
7376;BME280;3728;42.266;24.944;2024-03-29T04:58:32;99513.56;;;11.93;67.15
7376;BME280;3728;42.266;24.944;2024-03-29T05:00:58;99514.31;;;11.77;68.18
7376;BME280;3728;42.266;24.944;2024-03-29T05:03:24;99516.16;;;11.76;68.30
7376;BME280;3728;42.266;24.944;2024-03-29T05:05:51;99515.53;;;11.71;68.81
7376;BME280;3728;42.266;24.944;2024-03-29T05:08:17;99518.16;;;11.71;69.42
7376;BME280;3728;42.266;24.944;2024-03-29T05:10:48;99525.44;;;11.82;70.15
7376;BME280;3728;42.266;24.944;2024-03-29T05:13:16;99544.75;;;11.95;69.60
7376;BME280;3728;42.266;24.944;2024-03-29T05:15:42;99556.00;;;12.04;69.16
7376;BME280;3728;42.266;24.944;2024-03-29T05:18:09;99545.22;;;12.14;70.44
7376;BME280;3728;42.266;24.944;2024-03-29T05:20:38;99548.47;;;12.28;69.08
7376;BME280;3728;42.266;24.944;2024-03-29T05:23:07;99547.69;;;12.19;69.01
7376;BME280;3728;42.266;24.944;2024-03-29T05:25:33;99558.97;;;12.19;70.06
7376;BME280;3728;42.266;24.944;2024-03-29T05:28:00;99559.09;;;12.23;70.37
7376;BME280;3728;42.266;24.944;2024-03-29T05:30:27;99563.13;;;12.46;69.48
7376;BME280;3728;42.266;24.944;2024-03-29T05:32:54;99573.00;;;12.66;67.57
7376;BME280;3728;42.266;24.944;2024-03-29T05:35:20;99567.50;;;13.06;64.70
7376;BME280;3728;42.266;24.944;2024-03-29T05:37:46;99566.84;;;13.17;63.44
7376;BME280;3728;42.266;24.944;2024-03-29T05:40:15;99564.41;;;13.03;63.91
7376;BME280;3728;42.266;24.944;2024-03-29T05:42:42;99568.91;;;13.12;63.91
7376;BME280;3728;42.266;24.944;2024-03-29T05:45:25;99565.16;;;13.50;61.90
7376;BME280;3728;42.266;24.944;2024-03-29T05:47:53;99575.91;;;13.37;62.10
7376;BME280;3728;42.266;24.944;2024-03-29T05:50:20;99580.28;;;13.33;63.28
7376;BME280;3728;42.266;24.944;2024-03-29T05:52:47;99579.78;;;13.39;63.10
7376;BME280;3728;42.266;24.944;2024-03-29T05:55:13;99580.19;;;13.50;63.62
7376;BME280;3728;42.266;24.944;2024-03-29T05:57:39;99587.66;;;13.68;63.14
7376;BME280;3728;42.266;24.944;2024-03-29T06:00:10;99584.66;;;13.79;62.75
7376;BME280;3728;42.266;24.944;2024-03-29T06:02:37;99586.78;;;13.85;62.54
7376;BME280;3728;42.266;24.944;2024-03-29T06:05:03;99605.03;;;14.19;60.67
7376;BME280;3728;42.266;24.944;2024-03-29T06:07:31;99608.25;;;14.46;59.82
7376;BME280;3728;42.266;24.944;2024-03-29T06:09:59;99598.56;;;14.37;59.13
7376;BME280;3728;42.266;24.944;2024-03-29T06:12:33;99610.72;;;14.63;58.45
7376;BME280;3728;42.266;24.944;2024-03-29T06:15:00;99609.38;;;14.77;59.39
7376;BME280;3728;42.266;24.944;2024-03-29T06:17:45;99607.34;;;14.95;57.44
7376;BME280;3728;42.266;24.944;2024-03-29T06:20:12;99615.16;;;15.03;57.50
7376;BME280;3728;42.266;24.944;2024-03-29T06:22:38;99621.25;;;15.16;58.43
7376;BME280;3728;42.266;24.944;2024-03-29T06:25:04;99621.06;;;15.45;56.37
7376;BME280;3728;42.266;24.944;2024-03-29T06:27:34;99614.94;;;15.53;55.84
7376;BME280;3728;42.266;24.944;2024-03-29T06:30:01;99618.44;;;15.82;54.86
7376;BME280;3728;42.266;24.944;2024-03-29T06:32:28;99625.72;;;15.85;55.33
7376;BME280;3728;42.266;24.944;2024-03-29T06:34:54;99633.63;;;15.85;55.79
7376;BME280;3728;42.266;24.944;2024-03-29T06:37:20;99636.94;;;15.94;56.66
7376;BME280;3728;42.266;24.944;2024-03-29T06:39:51;99636.78;;;16.02;56.62
7376;BME280;3728;42.266;24.944;2024-03-29T06:42:17;99634.41;;;16.37;55.62
7376;BME280;3728;42.266;24.944;2024-03-29T06:44:43;99644.88;;;16.58;55.44
7376;BME280;3728;42.266;24.944;2024-03-29T06:47:09;99643.41;;;16.88;54.86
7376;BME280;3728;42.266;24.944;2024-03-29T06:49:36;99638.38;;;16.98;54.98
7376;BME280;3728;42.266;24.944;2024-03-29T06:52:05;99644.22;;;17.20;53.97
7376;BME280;3728;42.266;24.944;2024-03-29T06:54:31;99646.38;;;17.45;53.01
7376;BME280;3728;42.266;24.944;2024-03-29T06:56:59;99654.34;;;17.61;52.30
7376;BME280;3728;42.266;24.944;2024-03-29T06:59:26;99647.56;;;17.95;53.06
7376;BME280;3728;42.266;24.944;2024-03-29T07:01:53;99654.19;;;18.20;53.87
7376;BME280;3728;42.266;24.944;2024-03-29T07:04:21;99650.34;;;18.17;52.56
7376;BME280;3728;42.266;24.944;2024-03-29T07:06:47;99655.09;;;18.27;52.75
7376;BME280;3728;42.266;24.944;2024-03-29T07:09:14;99652.03;;;18.60;52.97
7376;BME280;3728;42.266;24.944;2024-03-29T07:11:40;99648.97;;;19.00;50.54
7376;BME280;3728;42.266;24.944;2024-03-29T07:14:06;99649.66;;;19.61;45.56
7376;BME280;3728;42.266;24.944;2024-03-29T07:16:32;99654.03;;;19.73;44.70
7376;BME280;3728;42.266;24.944;2024-03-29T07:18:58;99656.47;;;19.85;44.76
7376;BME280;3728;42.266;24.944;2024-03-29T07:21:27;99658.84;;;19.67;44.40
7376;BME280;3728;42.266;24.944;2024-03-29T07:23:53;99657.97;;;19.83;45.10
7376;BME280;3728;42.266;24.944;2024-03-29T07:26:19;99663.13;;;19.98;44.70
7376;BME280;3728;42.266;24.944;2024-03-29T07:28:47;99660.19;;;20.07;44.44
7376;BME280;3728;42.266;24.944;2024-03-29T07:31:13;99666.34;;;20.11;44.41
7376;BME280;3728;42.266;24.944;2024-03-29T07:33:39;99677.59;;;20.27;43.90
7376;BME280;3728;42.266;24.944;2024-03-29T07:36:06;99678.31;;;20.24;44.18
7376;BME280;3728;42.266;24.944;2024-03-29T07:38:36;99679.09;;;20.54;42.85
7376;BME280;3728;42.266;24.944;2024-03-29T07:41:03;99685.63;;;20.60;44.19
7376;BME280;3728;42.266;24.944;2024-03-29T07:43:53;99677.59;;;20.57;43.94
7376;BME280;3728;42.266;24.944;2024-03-29T07:46:37;99686.59;;;20.78;42.23
7376;BME280;3728;42.266;24.944;2024-03-29T07:49:05;99678.69;;;20.85;41.76
7376;BME280;3728;42.266;24.944;2024-03-29T07:51:33;99682.94;;;20.90;43.60
7376;BME280;3728;42.266;24.944;2024-03-29T07:54:00;99681.44;;;21.26;42.51
7376;BME280;3728;42.266;24.944;2024-03-29T07:56:27;99693.91;;;21.58;40.94
7376;BME280;3728;42.266;24.944;2024-03-29T07:58:53;99688.88;;;21.50;41.24
7376;BME280;3728;42.266;24.944;2024-03-29T08:01:20;99700.38;;;21.61;42.18
7376;BME280;3728;42.266;24.944;2024-03-29T08:03:49;99687.41;;;21.56;40.99
7376;BME280;3728;42.266;24.944;2024-03-29T08:06:16;99690.00;;;21.49;41.05
7376;BME280;3728;42.266;24.944;2024-03-29T08:08:45;99693.81;;;21.48;40.77
7376;BME280;3728;42.266;24.944;2024-03-29T08:11:11;99678.06;;;21.32;41.73
7376;BME280;3728;42.266;24.944;2024-03-29T08:13:38;99677.41;;;21.46;41.15
7376;BME280;3728;42.266;24.944;2024-03-29T08:16:05;99685.28;;;21.79;41.32
7376;BME280;3728;42.266;24.944;2024-03-29T08:18:32;99686.09;;;21.83;40.96
7376;BME280;3728;42.266;24.944;2024-03-29T08:20:59;99689.34;;;22.06;40.19
7376;BME280;3728;42.266;24.944;2024-03-29T08:23:26;99689.28;;;22.03;40.63
7376;BME280;3728;42.266;24.944;2024-03-29T08:25:52;99684.00;;;22.10;40.85
7376;BME280;3728;42.266;24.944;2024-03-29T08:28:24;99690.16;;;22.17;38.99
7376;BME280;3728;42.266;24.944;2024-03-29T08:31:00;99690.88;;;22.14;39.25
7376;BME280;3728;42.266;24.944;2024-03-29T08:33:26;99696.38;;;22.42;40.15
7376;BME280;3728;42.266;24.944;2024-03-29T08:35:53;99698.72;;;22.51;40.19
7376;BME280;3728;42.266;24.944;2024-03-29T08:38:19;99703.34;;;22.61;39.31
7376;BME280;3728;42.266;24.944;2024-03-29T08:40:45;99703.50;;;23.03;38.73
7376;BME280;3728;42.266;24.944;2024-03-29T08:43:14;99699.25;;;22.81;38.70
7376;BME280;3728;42.266;24.944;2024-03-29T08:45:42;99701.22;;;23.02;38.60
7376;BME280;3728;42.266;24.944;2024-03-29T08:48:08;99705.09;;;23.29;38.46
7376;BME280;3728;42.266;24.944;2024-03-29T08:50:35;99699.72;;;23.26;37.14
7376;BME280;3728;42.266;24.944;2024-03-29T08:53:02;99703.56;;;23.25;38.19
7376;BME280;3728;42.266;24.944;2024-03-29T08:55:32;99694.78;;;23.24;37.66
7376;BME280;3728;42.266;24.944;2024-03-29T08:57:59;99699.75;;;23.22;37.37
7376;BME280;3728;42.266;24.944;2024-03-29T09:00:29;99695.97;;;23.41;38.58
7376;BME280;3728;42.266;24.944;2024-03-29T09:02:55;99697.13;;;23.54;36.95
7376;BME280;3728;42.266;24.944;2024-03-29T09:05:25;99697.50;;;23.56;37.41
7376;BME280;3728;42.266;24.944;2024-03-29T09:07:56;99700.13;;;24.05;36.17
7376;BME280;3728;42.266;24.944;2024-03-29T09:10:23;99697.88;;;23.83;37.42
7376;BME280;3728;42.266;24.944;2024-03-29T09:12:53;99696.72;;;24.08;35.05
7376;BME280;3728;42.266;24.944;2024-03-29T09:15:19;99688.69;;;23.94;37.10
7376;BME280;3728;42.266;24.944;2024-03-29T09:17:46;99697.13;;;24.07;36.82
7376;BME280;3728;42.266;24.944;2024-03-29T09:20:12;99703.97;;;24.18;35.71
7376;BME280;3728;42.266;24.944;2024-03-29T09:22:39;99694.41;;;24.28;36.43
7376;BME280;3728;42.266;24.944;2024-03-29T09:25:05;99693.59;;;24.41;36.39
7376;BME280;3728;42.266;24.944;2024-03-29T09:27:32;99687.00;;;24.57;34.53
7376;BME280;3728;42.266;24.944;2024-03-29T09:30:03;99684.34;;;24.49;34.67
7376;BME280;3728;42.266;24.944;2024-03-29T09:32:33;99672.91;;;24.45;35.56
7376;BME280;3728;42.266;24.944;2024-03-29T09:34:59;99677.44;;;24.63;34.77
7376;BME280;3728;42.266;24.944;2024-03-29T09:37:26;99673.38;;;25.09;36.79
7376;BME280;3728;42.266;24.944;2024-03-29T09:39:53;99666.84;;;25.14;35.14
7376;BME280;3728;42.266;24.944;2024-03-29T09:42:22;99678.56;;;25.34;35.11
7376;BME280;3728;42.266;24.944;2024-03-29T09:44:50;99674.66;;;25.42;33.18
7376;BME280;3728;42.266;24.944;2024-03-29T09:47:17;99658.13;;;24.99;34.07
7376;BME280;3728;42.266;24.944;2024-03-29T09:49:44;99659.16;;;25.20;34.35
7376;BME280;3728;42.266;24.944;2024-03-29T09:52:15;99658.63;;;25.35;34.53
7376;BME280;3728;42.266;24.944;2024-03-29T09:54:43;99650.88;;;25.51;33.71
7376;BME280;3728;42.266;24.944;2024-03-29T09:57:09;99652.91;;;25.81;32.85
7376;BME280;3728;42.266;24.944;2024-03-29T09:59:38;99657.03;;;25.89;32.93
7376;BME280;3728;42.266;24.944;2024-03-29T10:02:14;99653.50;;;25.96;33.06
7376;BME280;3728;42.266;24.944;2024-03-29T10:04:42;99652.84;;;25.85;31.15
7376;BME280;3728;42.266;24.944;2024-03-29T10:07:08;99650.72;;;25.69;32.54
7376;BME280;3728;42.266;24.944;2024-03-29T10:09:35;99646.78;;;25.77;31.79
7376;BME280;3728;42.266;24.944;2024-03-29T10:12:03;99642.75;;;25.99;31.94
7376;BME280;3728;42.266;24.944;2024-03-29T10:14:31;99636.53;;;26.06;32.36
7376;BME280;3728;42.266;24.944;2024-03-29T10:16:58;99635.75;;;26.09;32.13
7376;BME280;3728;42.266;24.944;2024-03-29T10:19:24;99629.66;;;26.38;30.95
7376;BME280;3728;42.266;24.944;2024-03-29T10:21:50;99626.94;;;26.69;29.32
7376;BME280;3728;42.266;24.944;2024-03-29T10:24:16;99624.53;;;26.47;31.34
7376;BME280;3728;42.266;24.944;2024-03-29T10:26:43;99634.91;;;26.79;30.70
7376;BME280;3728;42.266;24.944;2024-03-29T10:29:10;99618.72;;;26.83;30.99
7376;BME280;3728;42.266;24.944;2024-03-29T10:31:37;99617.41;;;26.94;31.56
7376;BME280;3728;42.266;24.944;2024-03-29T10:34:03;99605.94;;;26.90;30.45
7376;BME280;3728;42.266;24.944;2024-03-29T10:36:31;99604.78;;;26.91;29.53
7376;BME280;3728;42.266;24.944;2024-03-29T10:39:09;99590.31;;;27.08;30.37
7376;BME280;3728;42.266;24.944;2024-03-29T10:41:46;99604.56;;;27.05;28.47
7376;BME280;3728;42.266;24.944;2024-03-29T10:44:13;99587.97;;;27.10;29.76
7376;BME280;3728;42.266;24.944;2024-03-29T10:46:41;99593.50;;;27.23;28.77
7376;BME280;3728;42.266;24.944;2024-03-29T10:49:09;99577.03;;;27.44;29.59
7376;BME280;3728;42.266;24.944;2024-03-29T10:51:40;99582.00;;;27.23;28.34
7376;BME280;3728;42.266;24.944;2024-03-29T10:54:11;99574.59;;;27.53;29.26
7376;BME280;3728;42.266;24.944;2024-03-29T10:56:38;99567.25;;;27.54;28.53
7376;BME280;3728;42.266;24.944;2024-03-29T10:59:44;99564.94;;;27.75;29.01
7376;BME280;3728;42.266;24.944;2024-03-29T11:05:12;99575.28;;;27.97;28.02
7376;BME280;3728;42.266;24.944;2024-03-29T11:07:43;99578.09;;;28.29;27.00
7376;BME280;3728;42.266;24.944;2024-03-29T11:10:23;99577.81;;;28.43;27.26
7376;BME280;3728;42.266;24.944;2024-03-29T11:13:00;99580.00;;;28.68;26.74
7376;BME280;3728;42.266;24.944;2024-03-29T11:15:31;99575.53;;;28.61;27.57
7376;BME280;3728;42.266;24.944;2024-03-29T11:17:57;99580.91;;;28.77;27.28
7376;BME280;3728;42.266;24.944;2024-03-29T11:20:28;99576.03;;;29.04;26.31
7376;BME280;3728;42.266;24.944;2024-03-29T11:23:05;99567.06;;;29.40;26.04
7376;BME280;3728;42.266;24.944;2024-03-29T11:25:46;99566.94;;;29.59;24.71
7376;BME280;3728;42.266;24.944;2024-03-29T11:28:30;99562.34;;;29.44;25.29
7376;BME280;3728;42.266;24.944;2024-03-29T11:31:03;99555.63;;;29.36;24.66
7376;BME280;3728;42.266;24.944;2024-03-29T11:33:34;99557.84;;;29.25;25.10
7376;BME280;3728;42.266;24.944;2024-03-29T11:36:10;99553.03;;;29.32;25.15
7376;BME280;3728;42.266;24.944;2024-03-29T11:38:39;99549.47;;;29.64;24.24
7376;BME280;3728;42.266;24.944;2024-03-29T11:41:15;99553.38;;;29.75;24.65
7376;BME280;3728;42.266;24.944;2024-03-29T11:43:43;99555.72;;;29.61;25.89
7376;BME280;3728;42.266;24.944;2024-03-29T11:46:11;99548.78;;;29.76;26.39
7376;BME280;3728;42.266;24.944;2024-03-29T11:48:39;99550.16;;;30.09;24.44
7376;BME280;3728;42.266;24.944;2024-03-29T11:51:07;99550.59;;;30.20;25.17
7376;BME280;3728;42.266;24.944;2024-03-29T11:53:37;99551.81;;;30.44;24.14
7376;BME280;3728;42.266;24.944;2024-03-29T11:56:04;99543.13;;;30.24;25.13
7376;BME280;3728;42.266;24.944;2024-03-29T11:58:33;99540.47;;;30.37;25.42
7376;BME280;3728;42.266;24.944;2024-03-29T12:01:00;99542.19;;;30.69;24.51
7376;BME280;3728;42.266;24.944;2024-03-29T12:03:31;99538.19;;;30.73;23.69
7376;BME280;3728;42.266;24.944;2024-03-29T12:05:59;99533.63;;;30.83;24.01
7376;BME280;3728;42.266;24.944;2024-03-29T12:08:30;99520.19;;;30.79;23.96
7376;BME280;3728;42.266;24.944;2024-03-29T12:11:02;99521.94;;;30.73;24.31
7376;BME280;3728;42.266;24.944;2024-03-29T12:13:30;99530.06;;;30.61;24.96
7376;BME280;3728;42.266;24.944;2024-03-29T12:15:57;99524.22;;;30.75;24.97
7376;BME280;3728;42.266;24.944;2024-03-29T12:18:26;99527.00;;;30.96;24.66
7376;BME280;3728;42.266;24.944;2024-03-29T12:20:59;99517.16;;;31.24;24.65
7376;BME280;3728;42.266;24.944;2024-03-29T12:23:26;99507.69;;;31.41;24.66
7376;BME280;3728;42.266;24.944;2024-03-29T12:25:56;99509.97;;;31.64;24.01
7376;BME280;3728;42.266;24.944;2024-03-29T12:28:24;99510.06;;;31.83;23.63
7376;BME280;3728;42.266;24.944;2024-03-29T12:30:52;99512.50;;;31.90;24.31
7376;BME280;3728;42.266;24.944;2024-03-29T12:33:21;99511.75;;;32.11;23.70
7376;BME280;3728;42.266;24.944;2024-03-29T12:35:50;99513.47;;;32.26;23.74
7376;BME280;3728;42.266;24.944;2024-03-29T12:38:19;99507.41;;;32.22;24.03
7376;BME280;3728;42.266;24.944;2024-03-29T12:40:50;99517.59;;;32.40;23.42
7376;BME280;3728;42.266;24.944;2024-03-29T12:43:21;99514.91;;;32.49;23.19
7376;BME280;3728;42.266;24.944;2024-03-29T12:45:51;99504.56;;;32.57;22.92
7376;BME280;3728;42.266;24.944;2024-03-29T12:48:20;99510.00;;;32.66;24.06
7376;BME280;3728;42.266;24.944;2024-03-29T12:50:49;99511.66;;;32.81;22.36
7376;BME280;3728;42.266;24.944;2024-03-29T12:53:17;99512.31;;;32.94;22.03
7376;BME280;3728;42.266;24.944;2024-03-29T12:55:44;99509.88;;;32.78;22.95
7376;BME280;3728;42.266;24.944;2024-03-29T12:58:16;99509.72;;;32.91;23.49
7376;BME280;3728;42.266;24.944;2024-03-29T13:00:46;99514.44;;;33.27;22.33
7376;BME280;3728;42.266;24.944;2024-03-29T13:03:14;99519.09;;;33.35;22.44
7376;BME280;3728;42.266;24.944;2024-03-29T13:05:43;99518.38;;;33.53;22.93
7376;BME280;3728;42.266;24.944;2024-03-29T13:08:14;99507.47;;;33.71;22.16
7376;BME280;3728;42.266;24.944;2024-03-29T13:10:44;99510.66;;;33.51;21.56
7376;BME280;3728;42.266;24.944;2024-03-29T13:13:10;99509.00;;;33.36;22.64
7376;BME280;3728;42.266;24.944;2024-03-29T13:15:38;99515.94;;;33.46;21.86
7376;BME280;3728;42.266;24.944;2024-03-29T13:18:07;99513.50;;;33.75;21.78